createdAt,value
2023-04-18T00:02:17.994Z,10.50
2023-04-18T00:04:47.038Z,13.40
2023-04-18T00:07:16.874Z,12.50
2023-04-18T00:09:45.917Z,12.50
2023-04-18T00:12:14.741Z,13.80
2023-04-18T00:14:44.664Z,12.80
2023-04-18T00:17:15.025Z,10.80
2023-04-18T00:19:43.778Z,12.90
2023-04-18T00:22:13.709Z,11.90
2023-04-18T00:24:42.270Z,13.60
2023-04-18T00:27:10.985Z,11.20
2023-04-18T00:29:41.384Z,12.90
2023-04-18T00:32:10.193Z,13.50
2023-04-18T00:34:39.353Z,12.70
2023-04-18T00:37:08.480Z,13.20
2023-04-18T00:39:37.264Z,12.50
2023-04-18T00:42:06.330Z,11.90
2023-04-18T00:44:35.151Z,10.60
2023-04-18T00:47:04.027Z,11.40
2023-04-18T00:49:33.324Z,12.40
2023-04-18T00:52:02.100Z,11.90
2023-04-18T00:54:31.224Z,12.30
2023-04-18T00:57:00.318Z,11.60
2023-04-18T00:59:28.770Z,11.90
2023-04-18T01:01:57.621Z,12.80
2023-04-18T01:04:26.849Z,12.00
2023-04-18T01:06:55.666Z,14.50
2023-04-18T01:09:25.374Z,13.30
2023-04-18T01:11:54.062Z,12.80
2023-04-18T01:14:23.042Z,13.60
2023-04-18T01:16:51.512Z,12.10
2023-04-18T01:19:21.345Z,12.80
2023-04-18T01:21:50.345Z,16.70
2023-04-18T01:24:19.024Z,16.90
2023-04-18T01:26:49.368Z,15.00
2023-04-18T01:29:18.024Z,13.30
2023-04-18T01:31:47.235Z,15.70
2023-04-18T01:34:20.326Z,12.70
2023-04-18T01:36:49.302Z,16.80
2023-04-18T01:39:18.822Z,11.50
2023-04-18T01:41:47.915Z,17.20
2023-04-18T01:44:18.331Z,11.70
2023-04-18T01:46:47.906Z,13.60
2023-04-18T01:49:16.832Z,13.70
2023-04-18T01:51:45.303Z,13.50
2023-04-18T01:54:14.211Z,14.90
2023-04-18T01:56:43.102Z,12.90
2023-04-18T01:59:11.989Z,15.00
2023-04-18T02:01:41.093Z,12.50
2023-04-18T02:04:09.736Z,14.80
2023-04-18T02:06:40.308Z,13.30
2023-04-18T02:09:10.312Z,11.40
2023-04-18T02:11:38.993Z,12.70
2023-04-18T02:14:07.780Z,12.50
2023-04-18T02:16:36.607Z,12.20
2023-04-18T02:19:06.694Z,9.20
2023-04-18T02:21:36.401Z,12.90
2023-04-18T02:24:05.289Z,11.90
2023-04-18T02:26:33.769Z,12.80
2023-04-18T02:29:03.586Z,13.10
2023-04-18T02:31:32.590Z,10.20
2023-04-18T02:34:01.364Z,12.10
2023-04-18T02:36:31.379Z,10.90
2023-04-18T02:39:00.260Z,12.00
2023-04-18T02:41:29.066Z,10.60
2023-04-18T02:43:57.971Z,10.20
2023-04-18T02:46:27.476Z,9.60
2023-04-18T02:48:56.247Z,9.30
2023-04-18T02:51:27.380Z,8.30
2023-04-18T02:53:56.771Z,11.80
2023-04-18T02:56:25.685Z,13.50
2023-04-18T02:59:17.494Z,14.30
2023-04-18T03:01:59.108Z,9.90
2023-04-18T03:04:27.913Z,9.10
2023-04-18T03:07:02.801Z,11.70
2023-04-18T03:09:33.966Z,11.60
2023-04-18T03:12:06.944Z,11.50
2023-04-18T03:14:36.660Z,12.80
2023-04-18T03:17:05.453Z,11.80
2023-04-18T03:19:38.945Z,10.60
2023-04-18T03:22:10.489Z,10.90
2023-04-18T03:24:44.620Z,11.40
2023-04-18T03:27:13.802Z,11.00
2023-04-18T03:29:44.118Z,13.00
2023-04-18T03:32:13.222Z,10.10
2023-04-18T03:34:42.202Z,12.80
2023-04-18T03:37:11.700Z,10.50
2023-04-18T03:39:45.104Z,11.40
2023-04-18T03:42:13.804Z,10.40
2023-04-18T03:44:42.581Z,10.30
2023-04-18T03:47:11.780Z,11.40
2023-04-18T03:49:42.004Z,12.70
2023-04-18T03:52:10.802Z,11.00
2023-04-18T03:54:39.786Z,12.40
2023-04-18T03:57:08.587Z,9.70
2023-04-18T03:59:37.983Z,13.00
2023-04-18T04:02:08.086Z,12.20
2023-04-18T04:04:37.480Z,11.60
2023-04-18T04:07:06.287Z,12.00
2023-04-18T04:09:34.966Z,10.50
2023-04-18T04:12:03.965Z,11.80
2023-04-18T04:14:33.163Z,11.50
2023-04-18T04:17:02.149Z,8.60
2023-04-18T04:19:32.282Z,12.30
2023-04-18T04:22:12.625Z,11.20
2023-04-18T04:24:43.147Z,14.20
2023-04-18T04:27:14.122Z,9.80
2023-04-18T04:29:44.219Z,12.50
2023-04-18T04:32:14.667Z,11.00
2023-04-18T04:34:43.318Z,14.00
2023-04-18T04:37:19.033Z,11.30
2023-04-18T04:40:09.456Z,12.50
2023-04-18T04:42:49.517Z,14.10
2023-04-18T04:45:24.652Z,11.10
2023-04-18T04:47:53.794Z,16.30
2023-04-18T04:50:22.767Z,13.30
2023-04-18T04:52:51.729Z,11.80
2023-04-18T04:55:20.944Z,12.50
2023-04-18T04:57:49.820Z,12.50
2023-04-18T05:00:31.622Z,11.90
2023-04-18T05:03:00.354Z,9.80
2023-04-18T05:05:29.716Z,14.50
2023-04-18T05:07:58.595Z,11.90
2023-04-18T05:10:27.276Z,15.60
2023-04-18T05:12:56.370Z,11.90
2023-04-18T05:15:25.660Z,14.30
2023-04-18T05:17:54.750Z,13.20
2023-04-18T05:20:24.393Z,13.00
2023-04-18T05:22:53.054Z,13.60
2023-04-18T05:25:21.863Z,11.70
2023-04-18T05:27:51.470Z,14.90
2023-04-18T05:30:20.058Z,12.90
2023-04-18T05:32:48.736Z,13.00
2023-04-18T05:35:17.818Z,12.50
2023-04-18T05:37:46.517Z,14.70
2023-04-18T05:40:15.182Z,13.60
2023-04-18T05:42:43.880Z,13.90
2023-04-18T05:45:12.567Z,11.30
2023-04-18T05:47:41.789Z,12.60
2023-04-18T05:50:10.678Z,11.20
2023-04-18T05:52:39.579Z,13.20
2023-04-18T05:55:08.542Z,10.50
2023-04-18T05:57:37.216Z,11.80
2023-04-18T06:00:07.439Z,12.00
2023-04-18T06:02:41.557Z,10.80
2023-04-18T06:05:10.915Z,10.50
2023-04-18T06:07:39.812Z,12.10
2023-04-18T06:10:11.506Z,12.10
2023-04-18T06:12:41.006Z,13.50
2023-04-18T06:15:10.813Z,12.70
2023-04-18T06:17:40.289Z,11.00
2023-04-18T06:20:10.076Z,11.60
2023-04-18T06:22:38.627Z,12.40
2023-04-18T06:25:10.308Z,11.90
2023-04-18T06:27:40.089Z,11.10
2023-04-18T06:30:09.485Z,11.70
2023-04-18T06:32:38.738Z,12.10
2023-04-18T06:35:07.820Z,11.60
2023-04-18T06:37:36.569Z,10.60
2023-04-18T06:40:06.264Z,9.50
2023-04-18T06:42:34.954Z,10.80
2023-04-18T06:45:04.361Z,11.20
2023-04-18T06:47:33.375Z,11.30
2023-04-18T06:50:02.057Z,12.40
2023-04-18T06:52:30.955Z,10.90
2023-04-18T06:55:00.028Z,10.00
2023-04-18T06:57:29.735Z,10.00
2023-04-18T06:59:58.323Z,9.70
2023-04-18T07:02:27.246Z,10.00
2023-04-18T07:04:56.248Z,10.80
2023-04-18T07:07:24.705Z,11.80
2023-04-18T07:09:54.303Z,8.00
2023-04-18T07:12:22.824Z,9.40
2023-04-18T07:14:52.378Z,10.00
2023-04-18T07:17:21.399Z,10.10
2023-04-18T07:19:51.180Z,9.60
2023-04-18T07:22:19.984Z,10.20
2023-04-18T07:24:48.558Z,10.30
2023-04-18T07:27:17.359Z,11.00
2023-04-18T07:29:46.229Z,11.30
2023-04-18T07:32:15.009Z,10.20
2023-04-18T07:34:44.325Z,10.40
2023-04-18T07:37:15.072Z,11.50
2023-04-18T07:39:43.836Z,12.20
2023-04-18T07:42:12.625Z,8.50
2023-04-18T07:44:41.412Z,9.70
2023-04-18T07:47:13.071Z,11.90
2023-04-18T07:49:41.772Z,10.50
2023-04-18T07:52:12.436Z,10.20
2023-04-18T07:54:40.866Z,8.70
2023-04-18T07:57:09.765Z,9.40
2023-04-18T07:59:38.563Z,8.90
2023-04-18T08:02:08.098Z,9.00
2023-04-18T08:04:38.002Z,8.90
2023-04-18T08:07:06.765Z,8.10
2023-04-18T08:09:35.504Z,9.80
2023-04-18T08:12:04.525Z,8.90
2023-04-18T08:14:33.012Z,8.10
2023-04-18T08:17:02.042Z,9.40
2023-04-18T08:19:30.897Z,10.60
2023-04-18T08:22:11.362Z,8.90
2023-04-18T08:24:40.130Z,8.30
2023-04-18T08:27:08.926Z,9.80
2023-04-18T08:29:37.630Z,7.60
2023-04-18T08:32:09.442Z,7.70
2023-04-18T08:34:38.574Z,7.70
2023-04-18T08:37:07.532Z,7.30
2023-04-18T08:39:36.141Z,7.60
2023-04-18T08:42:06.988Z,8.40
2023-04-18T08:44:36.179Z,7.70
2023-04-18T08:47:04.862Z,6.70
2023-04-18T08:49:34.085Z,8.00
2023-04-18T08:52:03.227Z,7.70
2023-04-18T08:54:32.066Z,8.10
2023-04-18T08:57:07.751Z,6.70
2023-04-18T08:59:36.906Z,8.20
2023-04-18T09:02:07.237Z,8.70
2023-04-18T09:04:39.429Z,8.60
2023-04-18T09:07:10.197Z,7.50
2023-04-18T09:09:53.041Z,7.30
2023-04-18T09:12:23.669Z,7.40
2023-04-18T09:15:16.008Z,7.40
2023-04-18T09:17:49.775Z,6.50
2023-04-18T09:20:45.341Z,6.60
2023-04-18T09:23:23.786Z,8.20
2023-04-18T09:25:53.671Z,7.30
2023-04-18T09:28:28.338Z,8.20
2023-04-18T09:30:58.998Z,8.40
2023-04-18T09:33:34.770Z,8.00
2023-04-18T09:36:25.231Z,8.10
2023-04-18T09:38:56.707Z,7.60
2023-04-18T09:41:25.913Z,8.50
2023-04-18T09:44:13.231Z,9.80
2023-04-18T09:46:47.103Z,8.70
2023-04-18T09:49:18.652Z,9.30
2023-04-18T09:51:47.708Z,9.20
2023-04-18T09:54:17.403Z,9.60
2023-04-18T09:56:47.621Z,9.50
2023-04-18T09:59:19.826Z,9.50
2023-04-18T10:01:50.132Z,10.00
2023-04-18T10:04:19.826Z,9.20
2023-04-18T10:06:48.612Z,10.70
2023-04-18T10:09:17.365Z,8.60
2023-04-18T10:11:47.065Z,9.60
2023-04-18T10:14:16.676Z,9.50
2023-04-18T10:16:47.482Z,8.90
2023-04-18T10:19:28.900Z,10.00
2023-04-18T10:22:02.552Z,10.40
2023-04-18T10:24:56.611Z,10.20
2023-04-18T10:27:50.291Z,7.00
2023-04-18T10:30:19.583Z,9.40
2023-04-18T10:32:48.322Z,8.90
2023-04-18T10:35:17.061Z,8.20
2023-04-18T10:37:52.416Z,12.10
2023-04-18T10:40:41.470Z,10.50
2023-04-18T10:43:10.393Z,9.40
2023-04-18T10:45:39.549Z,10.80
2023-04-18T10:48:31.553Z,11.10
2023-04-18T10:51:17.153Z,9.20
2023-04-18T10:53:52.411Z,11.40
2023-04-18T10:56:21.291Z,10.30
2023-04-18T10:58:52.092Z,11.90
2023-04-18T11:01:33.256Z,10.40
2023-04-18T11:04:02.297Z,11.00
2023-04-18T11:06:31.718Z,11.50
2023-04-18T11:09:13.935Z,10.00
2023-04-18T11:11:44.529Z,8.90
2023-04-18T11:14:13.492Z,10.00
2023-04-18T11:16:42.676Z,9.40
2023-04-18T11:19:22.480Z,10.50
2023-04-18T11:21:52.187Z,10.60
2023-04-18T11:24:24.341Z,9.00
2023-04-18T11:26:56.432Z,9.80
2023-04-18T11:29:25.469Z,9.90
2023-04-18T11:31:56.828Z,8.10
2023-04-18T11:34:31.171Z,9.60
2023-04-18T11:37:00.295Z,8.50
2023-04-18T11:39:28.967Z,9.50
2023-04-18T11:41:59.894Z,9.30
2023-04-18T11:44:28.710Z,9.30
2023-04-18T11:46:57.789Z,8.30
2023-04-18T11:49:32.362Z,10.30
2023-04-18T11:52:02.087Z,10.70
2023-04-18T11:54:45.046Z,8.50
2023-04-18T11:57:30.618Z,9.80
2023-04-18T12:00:01.188Z,9.40
2023-04-18T12:02:44.455Z,8.40
2023-04-18T12:05:25.351Z,9.60
2023-04-18T12:07:54.967Z,10.60
2023-04-18T12:10:27.022Z,10.60
2023-04-18T12:12:59.910Z,12.50
2023-04-18T12:15:30.131Z,11.90
2023-04-18T12:18:01.020Z,11.40
2023-04-18T12:20:50.610Z,12.30
2023-04-18T12:23:31.727Z,12.70
2023-04-18T12:26:07.645Z,12.80
2023-04-18T12:28:36.567Z,12.00
2023-04-18T12:31:09.127Z,9.80
2023-04-18T12:33:37.922Z,11.60
2023-04-18T12:36:08.738Z,10.20
2023-04-18T12:38:37.653Z,11.90
2023-04-18T12:41:06.849Z,11.70
2023-04-18T12:43:35.435Z,12.10
2023-04-18T12:46:04.209Z,9.50
2023-04-18T12:48:33.506Z,10.50
2023-04-18T12:51:07.571Z,10.90
2023-04-18T12:54:51.782Z,11.50
2023-04-18T12:57:26.397Z,10.60
2023-04-18T12:59:55.302Z,9.70
2023-04-18T13:02:24.627Z,10.10
2023-04-18T13:04:53.537Z,9.40
2023-04-18T13:07:22.278Z,11.00
2023-04-18T13:09:51.482Z,10.60
2023-04-18T13:12:20.162Z,9.80
2023-04-18T13:14:49.353Z,12.00
2023-04-18T13:17:18.040Z,10.00
2023-04-18T13:19:46.823Z,10.40
2023-04-18T13:22:15.721Z,9.80
2023-04-18T13:24:44.535Z,9.80
2023-04-18T13:27:14.927Z,10.40
2023-04-18T13:29:45.984Z,11.20
2023-04-18T13:32:15.040Z,10.20
2023-04-18T13:34:46.108Z,9.80
2023-04-18T13:37:16.426Z,9.70
2023-04-18T13:39:45.226Z,10.70
2023-04-18T13:42:16.058Z,13.00
2023-04-18T13:44:45.465Z,12.40
2023-04-18T13:47:14.138Z,11.20
2023-04-18T13:49:43.030Z,13.30
2023-04-18T13:52:12.264Z,14.50
2023-04-18T13:54:41.730Z,13.20
2023-04-18T13:57:13.316Z,14.10
2023-04-18T13:59:59.065Z,11.50
2023-04-18T14:02:36.608Z,14.30
2023-04-18T14:05:06.241Z,11.60
2023-04-18T14:07:35.879Z,13.00
2023-04-18T14:10:05.486Z,16.60
2023-04-18T14:12:34.592Z,12.50
2023-04-18T14:15:03.574Z,14.20
2023-04-18T14:17:32.336Z,16.20
2023-04-18T14:20:01.694Z,17.20
2023-04-18T14:22:31.529Z,15.40
2023-04-18T14:25:00.783Z,17.00
2023-04-18T14:27:30.108Z,13.90
2023-04-18T14:29:59.001Z,15.60
2023-04-18T14:32:28.242Z,14.30
2023-04-18T14:34:59.533Z,13.70
2023-04-18T14:37:28.537Z,12.60
2023-04-18T14:39:57.299Z,12.40
2023-04-18T14:42:26.194Z,14.10
2023-04-18T14:44:55.290Z,13.20
2023-04-18T14:47:27.350Z,11.80
2023-04-18T14:49:56.856Z,13.40
2023-04-18T14:52:25.959Z,12.60
2023-04-18T14:54:54.763Z,11.50
2023-04-18T14:57:25.009Z,10.00
2023-04-18T14:59:55.501Z,10.30
2023-04-18T15:02:24.512Z,11.40
2023-04-18T15:04:54.131Z,12.10
2023-04-18T15:07:23.305Z,11.80
2023-04-18T15:09:51.961Z,10.00
2023-04-18T15:12:20.645Z,12.20
2023-04-18T15:14:49.433Z,12.10
2023-04-18T15:17:18.240Z,11.50
2023-04-18T15:19:47.424Z,10.70
2023-04-18T15:22:16.744Z,9.70
2023-04-18T15:24:45.817Z,10.90
2023-04-18T15:27:15.026Z,9.90
2023-04-18T15:29:43.903Z,10.60
2023-04-18T15:32:13.060Z,8.50
2023-04-18T15:34:41.820Z,11.80
2023-04-18T15:37:11.208Z,12.00
2023-04-18T15:39:40.008Z,11.50
2023-04-18T15:42:08.984Z,12.00
2023-04-18T15:44:38.075Z,12.70
2023-04-18T15:47:07.371Z,11.20
2023-04-18T15:49:36.591Z,11.40
2023-04-18T15:52:07.527Z,11.10
2023-04-18T15:54:36.696Z,12.20
2023-04-18T15:57:05.301Z,12.20
2023-04-18T15:59:34.609Z,12.00
2023-04-18T16:02:03.659Z,12.40
2023-04-18T16:04:33.770Z,10.80
2023-04-18T16:07:02.797Z,14.50
2023-04-18T16:09:31.963Z,14.00
2023-04-18T16:12:02.223Z,10.70
2023-04-18T16:14:31.824Z,13.40
2023-04-18T16:17:00.827Z,13.20
2023-04-18T16:19:30.029Z,15.20
2023-04-18T16:21:58.923Z,13.90
2023-04-18T16:24:28.222Z,10.80
2023-04-18T16:26:57.533Z,13.20
2023-04-18T16:29:27.746Z,13.00
2023-04-18T16:31:57.798Z,14.40
2023-04-18T16:34:27.384Z,12.50
2023-04-18T16:36:56.344Z,13.00
2023-04-18T16:39:28.528Z,10.20
2023-04-18T16:41:58.111Z,13.80
2023-04-18T16:44:28.249Z,12.80
2023-04-18T16:46:58.589Z,13.40
2023-04-18T16:49:29.515Z,13.30
2023-04-18T16:51:58.594Z,13.40
2023-04-18T16:54:27.727Z,15.10
2023-04-18T16:56:57.601Z,11.90
2023-04-18T16:59:27.533Z,13.80
2023-04-18T17:01:56.302Z,13.00
2023-04-18T17:04:27.341Z,15.00
2023-04-18T17:06:57.540Z,10.90
2023-04-18T17:09:27.285Z,12.10
2023-04-18T17:12:04.019Z,14.20
2023-04-18T17:14:37.540Z,12.10
2023-04-18T17:17:06.741Z,12.80
2023-04-18T17:19:37.401Z,14.20
2023-04-18T17:22:07.300Z,14.60
2023-04-18T17:24:38.344Z,13.90
2023-04-18T17:27:08.173Z,13.40
2023-04-18T17:29:38.335Z,12.70
2023-04-18T17:32:07.799Z,13.50
2023-04-18T17:34:41.412Z,11.50
2023-04-18T17:37:14.685Z,13.20
2023-04-18T17:39:45.290Z,11.00
2023-04-18T17:42:17.253Z,12.90
2023-04-18T17:44:47.411Z,13.30
2023-04-18T17:47:20.073Z,9.90
2023-04-18T17:49:51.394Z,8.90
2023-04-18T17:52:23.774Z,11.80
2023-04-18T17:54:57.112Z,11.80
2023-04-18T17:57:28.947Z,14.70
2023-04-18T18:00:02.579Z,14.00
2023-04-18T18:02:43.839Z,16.00
2023-04-18T18:05:14.610Z,12.50
2023-04-18T18:07:49.749Z,11.30
2023-04-18T18:10:24.456Z,13.40
2023-04-18T18:12:56.554Z,12.00
2023-04-18T18:15:31.224Z,14.40
2023-04-18T18:18:03.873Z,13.40
2023-04-18T18:20:35.480Z,15.70
2023-04-18T18:23:07.908Z,13.00
2023-04-18T18:25:39.056Z,12.30
2023-04-18T18:28:10.019Z,13.20
2023-04-18T18:30:40.928Z,13.30
2023-04-18T18:33:14.524Z,13.30
2023-04-18T18:35:44.854Z,13.10
2023-04-18T18:38:15.039Z,14.70
2023-04-18T18:40:44.782Z,13.20
2023-04-18T18:43:16.594Z,12.50
2023-04-18T18:45:50.967Z,13.50
2023-04-18T18:48:20.362Z,13.60
2023-04-18T18:50:50.677Z,13.50
2023-04-18T18:53:27.327Z,14.80
2023-04-18T18:56:11.310Z,11.90
2023-04-18T18:59:03.144Z,14.90
2023-04-18T19:01:50.129Z,13.20
2023-04-18T19:04:33.666Z,12.80
2023-04-18T19:07:16.390Z,12.50
2023-04-18T19:09:52.159Z,15.30
2023-04-18T19:12:26.432Z,12.70
2023-04-18T19:15:03.978Z,12.90
2023-04-18T19:17:38.816Z,13.20
2023-04-18T19:20:13.781Z,13.30
2023-04-18T19:22:47.423Z,13.90
2023-04-18T19:25:23.188Z,14.70
2023-04-18T19:27:58.945Z,14.50
2023-04-18T19:30:37.715Z,12.60
2023-04-18T19:33:13.302Z,14.30
2023-04-18T19:35:51.481Z,11.70
2023-04-18T19:38:27.902Z,15.10
2023-04-18T19:41:06.498Z,14.60
2023-04-18T19:43:47.597Z,13.30
2023-04-18T19:46:23.629Z,16.10
2023-04-18T19:49:00.268Z,20.10
2023-04-18T19:51:37.660Z,18.90
2023-04-18T19:54:22.142Z,19.50
2023-04-18T19:56:55.370Z,20.90
2023-04-18T19:59:28.353Z,17.90
2023-04-18T20:02:06.471Z,19.70
2023-04-18T20:04:42.880Z,19.00
2023-04-18T20:07:26.136Z,15.90
2023-04-18T20:10:01.805Z,24.70
2023-04-18T20:12:33.724Z,18.40
2023-04-18T20:15:13.591Z,23.50
2023-04-18T20:17:50.043Z,21.10
2023-04-18T20:20:29.952Z,17.70
2023-04-18T20:23:06.990Z,16.60
2023-04-18T20:25:44.066Z,18.40
2023-04-18T20:28:18.781Z,22.60
2023-04-18T20:30:54.639Z,22.10
2023-04-18T20:33:34.853Z,24.40
2023-04-18T20:36:12.206Z,27.90
2023-04-18T20:38:46.565Z,25.40
2023-04-18T20:41:29.933Z,26.60
2023-04-18T20:44:16.316Z,25.00
2023-04-18T20:46:59.447Z,20.70
2023-04-18T20:49:38.133Z,19.70
2023-04-18T20:52:20.409Z,16.30
2023-04-18T20:55:00.345Z,22.20
2023-04-18T20:57:38.217Z,15.90
2023-04-18T21:00:20.652Z,17.80
2023-04-18T21:03:03.867Z,15.90
2023-04-18T21:05:45.362Z,13.30
2023-04-18T21:08:24.425Z,10.40
2023-04-18T21:11:02.397Z,13.20
2023-04-18T21:13:42.497Z,15.50
2023-04-18T21:16:20.441Z,14.90
2023-04-18T21:18:59.691Z,13.90
2023-04-18T21:21:32.129Z,14.50
2023-04-18T21:24:07.348Z,14.80
2023-04-18T21:26:47.623Z,14.60
2023-04-18T21:29:29.794Z,17.00
2023-04-18T21:32:11.180Z,16.20
2023-04-18T21:34:51.234Z,16.60
2023-04-18T21:37:36.194Z,15.50
2023-04-18T21:40:15.111Z,10.30
2023-04-18T21:42:59.103Z,11.10
2023-04-18T21:45:37.209Z,13.80
2023-04-18T21:48:17.537Z,15.40
2023-04-18T21:51:01.735Z,16.00
2023-04-18T21:53:37.817Z,14.00
2023-04-18T21:56:12.888Z,14.10
2023-04-18T21:58:47.853Z,13.30
2023-04-18T22:01:26.766Z,15.40
2023-04-18T22:04:09.847Z,12.70
2023-04-18T22:06:54.295Z,14.00
2023-04-18T22:09:36.680Z,13.10
2023-04-18T22:12:17.697Z,13.50
2023-04-18T22:14:57.663Z,12.30
2023-04-18T22:17:33.612Z,11.90
2023-04-18T22:20:11.864Z,12.80
2023-04-18T22:22:47.197Z,10.70
2023-04-18T22:25:19.971Z,12.10
2023-04-18T22:27:50.914Z,12.50
2023-04-18T22:30:21.511Z,12.20
2023-04-18T22:32:51.612Z,12.40
2023-04-18T22:35:23.210Z,12.80
2023-04-18T22:37:53.234Z,11.00
2023-04-18T22:40:23.847Z,11.70
2023-04-18T22:42:55.444Z,12.80
2023-04-18T22:45:25.045Z,9.80
2023-04-18T22:47:54.083Z,12.90
2023-04-18T22:50:22.805Z,11.40
2023-04-18T22:52:51.792Z,12.40
2023-04-18T22:55:21.057Z,11.80
2023-04-18T22:57:49.672Z,10.30
2023-04-18T23:00:19.135Z,10.00
2023-04-18T23:02:47.729Z,10.00
2023-04-18T23:05:16.567Z,11.60
2023-04-18T23:07:45.351Z,11.30
2023-04-18T23:10:14.138Z,11.10
2023-04-18T23:12:42.724Z,8.60
2023-04-18T23:15:12.227Z,9.60
2023-04-18T23:17:40.922Z,9.10
2023-04-18T23:20:11.504Z,10.90
2023-04-18T23:22:40.046Z,11.60
2023-04-18T23:25:08.941Z,9.70
2023-04-18T23:27:37.809Z,8.70
2023-04-18T23:30:07.512Z,11.10
2023-04-18T23:32:36.172Z,9.70
2023-04-18T23:35:06.916Z,9.40
2023-04-18T23:37:35.512Z,9.70
2023-04-18T23:40:07.042Z,6.70
2023-04-18T23:42:37.298Z,8.70
2023-04-18T23:45:07.424Z,10.90
2023-04-18T23:47:36.125Z,10.60
2023-04-18T23:50:06.024Z,8.60
2023-04-18T23:52:34.701Z,8.90
2023-04-18T23:55:03.807Z,10.40
2023-04-18T23:57:32.790Z,8.10
